Time;durP1;ratioP1;P1;durP2;ratioP2;P2;SDS_P1;SDS_P2;PMS_P1;PMS_P2;Temp;Humidity;BMP_temperature;BMP_pressure;BME280_temperature;BME280_humidity;BME280_pressure;Samples;Min_cycle;Max_cycle;Signal;HPM_P1;HPM_P2
2022/11/13 00:00:35;;;;;;;0.60;0.60;;;8.00;99.90;;;;;;4945061;28;20059;-87
2022/11/13 00:03:01;;;;;;;0.60;0.60;;;7.90;99.90;;;;;;4979570;28;20074;-87
2022/11/13 00:05:26;;;;;;;0.68;0.68;;;7.90;99.90;;;;;;4964214;28;20052;-87
2022/11/13 00:07:52;;;;;;;0.68;0.68;;;7.70;99.90;;;;;;4961001;28;20082;-86
2022/11/13 00:10:18;;;;;;;0.60;0.60;;;7.50;99.90;;;;;;4963404;28;20053;-86
2022/11/13 00:12:47;;;;;;;0.60;0.60;;;7.30;99.90;;;;;;4982680;28;20486;-86
2022/11/13 00:15:12;;;;;;;0.60;0.60;;;7.20;99.90;;;;;;4946670;28;20498;-86
2022/11/13 00:17:38;;;;;;;0.60;0.60;;;7.30;99.90;;;;;;4949131;28;20044;-86
2022/11/13 00:20:04;;;;;;;0.65;0.65;;;7.20;99.90;;;;;;4928268;28;20762;-86
2022/11/13 00:22:30;;;;;;;0.60;0.60;;;7.10;99.90;;;;;;4948424;28;20300;-87
2022/11/13 00:24:56;;;;;;;0.60;0.60;;;7.20;99.90;;;;;;4938303;28;20045;-86
2022/11/13 00:27:22;;;;;;;0.63;0.63;;;7.00;99.90;;;;;;4959658;28;20909;-86
2022/11/13 00:29:47;;;;;;;0.60;0.60;;;7.20;99.90;;;;;;4930856;28;20048;-86
2022/11/13 00:32:13;;;;;;;0.60;0.60;;;7.20;99.90;;;;;;4985012;28;20079;-86
2022/11/13 00:34:39;;;;;;;0.65;0.65;;;7.20;99.90;;;;;;4953597;28;20127;-86
2022/11/13 00:37:05;;;;;;;0.70;0.70;;;7.20;99.90;;;;;;4952871;28;20048;-86
2022/11/13 00:39:46;;;;;;;0.60;0.60;;;7.30;99.90;;;;;;4967223;28;20044;-85
2022/11/13 00:42:11;;;;;;;0.68;0.68;;;7.10;99.90;;;;;;4975697;28;20045;-88
2022/11/13 00:44:37;;;;;;;0.60;0.60;;;7.20;99.90;;;;;;4976069;28;20211;-85
2022/11/13 00:47:03;;;;;;;0.65;0.65;;;7.10;99.90;;;;;;4959771;28;20642;-87
2022/11/13 00:49:29;;;;;;;0.63;0.63;;;7.20;99.90;;;;;;4960627;28;20057;-86
2022/11/13 00:51:55;;;;;;;0.60;0.60;;;7.10;99.90;;;;;;4954967;28;20044;-86
2022/11/13 00:54:20;;;;;;;0.60;0.60;;;7.20;99.90;;;;;;4966826;28;20101;-85
2022/11/13 00:56:46;;;;;;;0.60;0.60;;;7.20;99.90;;;;;;4961659;28;20480;-87
2022/11/13 00:59:19;;;;;;;0.57;0.57;;;7.30;99.90;;;;;;4968897;28;20047;-85
2022/11/13 01:01:45;;;;;;;0.60;0.60;;;7.30;99.90;;;;;;4954225;28;20670;-86
2022/11/13 01:04:11;;;;;;;0.60;0.60;;;7.30;99.90;;;;;;4968967;28;20741;-86
2022/11/13 01:06:36;;;;;;;0.70;0.70;;;7.20;99.90;;;;;;4959526;28;20048;-86
2022/11/13 01:09:02;;;;;;;0.60;0.60;;;7.20;99.90;;;;;;4945037;28;20044;-86
2022/11/13 01:11:29;;;;;;;0.60;0.60;;;7.10;99.90;;;;;;4966020;28;20439;-86
2022/11/13 01:13:56;;;;;;;0.70;0.70;;;7.10;99.90;;;;;;4984232;28;20044;-86
2022/11/13 01:16:26;;;;;;;0.70;0.70;;;7.00;99.90;;;;;;4963048;28;20044;-86
2022/11/13 01:18:54;;;;;;;0.60;0.60;;;7.00;99.90;;;;;;4954622;28;20048;-85
2022/11/13 01:21:26;;;;;;;0.70;0.70;;;6.90;99.90;;;;;;4964440;28;20844;-86
2022/11/13 01:23:53;;;;;;;0.60;0.60;;;7.00;99.90;;;;;;4977074;28;20048;-86
2022/11/13 01:26:29;;;;;;;0.60;0.60;;;7.00;99.90;;;;;;4965882;28;20800;-85
2022/11/13 01:28:57;;;;;;;0.60;0.60;;;6.90;99.90;;;;;;4991186;28;20049;-86
2022/11/13 01:31:27;;;;;;;0.70;0.70;;;6.90;99.90;;;;;;4970612;28;20047;-86
2022/11/13 01:33:53;;;;;;;0.60;0.60;;;7.00;99.90;;;;;;4962541;28;20780;-87
2022/11/13 01:36:21;;;;;;;0.70;0.70;;;7.10;99.90;;;;;;4970298;28;20048;-86
2022/11/13 01:38:48;;;;;;;0.60;0.60;;;7.10;99.90;;;;;;4959523;28;20056;-86
2022/11/13 01:41:18;;;;;;;0.60;0.60;;;7.00;99.90;;;;;;4970013;28;20738;-86
2022/11/13 01:43:45;;;;;;;0.60;0.60;;;7.00;99.90;;;;;;4973146;28;20083;-86
2022/11/13 01:46:26;;;;;;;0.70;0.70;;;7.00;99.90;;;;;;4934638;28;20242;-86
2022/11/13 01:49:07;;;;;;;0.68;0.68;;;6.90;99.90;;;;;;4961045;28;20060;-86
2022/11/13 01:51:48;;;;;;;0.60;0.60;;;7.00;99.90;;;;;;4942157;28;20083;-87
2022/11/13 01:54:52;;;;;;;0.60;0.60;;;7.10;99.90;;;;;;4965366;28;20108;-86
2022/11/13 01:57:18;;;;;;;;;;;7.00;99.90;;;;;;4914306;28;20090;-86
2022/11/13 01:59:51;;;;;;;0.60;0.60;;;7.10;99.90;;;;;;4931745;28;20085;-86
2022/11/13 02:02:17;;;;;;;0.63;0.63;;;7.00;99.90;;;;;;4984651;28;20055;-85
2022/11/13 02:04:44;;;;;;;0.70;0.70;;;7.00;99.90;;;;;;4968627;28;20041;-86
2022/11/13 02:07:16;;;;;;;0.70;0.70;;;6.90;99.90;;;;;;4966563;28;20052;-86
2022/11/13 02:09:45;;;;;;;0.60;0.60;;;6.80;99.90;;;;;;4973637;28;20117;-86
2022/11/13 02:12:14;;;;;;;0.60;0.60;;;6.90;99.90;;;;;;4966810;28;20044;-85
2022/11/13 02:14:51;;;;;;;0.60;0.60;;;6.80;99.90;;;;;;4969009;28;20569;-85
2022/11/13 02:17:48;;;;;;;0.60;0.60;;;6.80;99.90;;;;;;4963542;28;20040;-85
2022/11/13 02:20:15;;;;;;;0.60;0.60;;;6.90;99.90;;;;;;4976710;28;20064;-85
2022/11/13 02:23:26;;;;;;;0.70;0.70;;;6.80;99.90;;;;;;4962036;28;20040;-85
2022/11/13 02:25:53;;;;;;;0.63;0.63;;;6.80;99.90;;;;;;4917414;28;20635;-86
2022/11/13 02:28:19;;;;;;;0.60;0.60;;;6.80;99.90;;;;;;4944328;28;20048;-86
2022/11/13 02:30:51;;;;;;;0.70;0.70;;;6.80;99.90;;;;;;4980539;28;20258;-86
2022/11/13 02:33:26;;;;;;;0.70;0.70;;;6.90;99.90;;;;;;4946262;28;20063;-85
2022/11/13 02:35:52;;;;;;;0.70;0.70;;;6.80;99.90;;;;;;4943895;28;20044;-86
2022/11/13 02:38:18;;;;;;;0.70;0.70;;;6.80;99.90;;;;;;4964094;28;20103;-86
2022/11/13 02:40:44;;;;;;;0.60;0.60;;;6.80;99.90;;;;;;4961868;28;20067;-86
2022/11/13 02:43:10;;;;;;;0.60;0.60;;;6.70;99.90;;;;;;4947279;28;20083;-85
2022/11/13 02:45:37;;;;;;;0.70;0.70;;;6.80;99.90;;;;;;4936587;28;20053;-85
2022/11/13 02:48:04;;;;;;;0.60;0.60;;;6.90;99.90;;;;;;4957591;28;20117;-85
2022/11/13 02:50:30;;;;;;;0.68;0.68;;;6.90;99.90;;;;;;4961629;28;20072;-86
2022/11/13 02:52:56;;;;;;;0.70;0.70;;;6.70;99.90;;;;;;4955126;28;20143;-85
2022/11/13 02:55:25;;;;;;;0.60;0.60;;;6.70;99.90;;;;;;4941983;28;20944;-86
2022/11/13 02:57:54;;;;;;;0.60;0.60;;;6.70;99.90;;;;;;4950353;28;20106;-87
2022/11/13 03:00:20;;;;;;;0.60;0.60;;;6.60;99.90;;;;;;4956161;28;20048;-85
2022/11/13 03:02:46;;;;;;;0.60;0.60;;;6.60;99.90;;;;;;4959059;28;20032;-84
2022/11/13 03:05:11;;;;;;;0.60;0.60;;;6.70;99.90;;;;;;4960012;28;20526;-86
2022/11/13 03:07:37;;;;;;;0.70;0.70;;;6.40;99.90;;;;;;4963142;28;20738;-86
2022/11/13 03:10:03;;;;;;;0.70;0.70;;;6.60;99.90;;;;;;4930886;28;20048;-85
2022/11/13 03:12:29;;;;;;;0.60;0.60;;;6.60;99.90;;;;;;4925923;28;20155;-85
2022/11/13 03:14:57;;;;;;;0.70;0.70;;;6.50;99.90;;;;;;4962210;28;20914;-86
2022/11/13 03:17:22;;;;;;;0.63;0.63;;;6.40;99.90;;;;;;4962090;28;20639;-86
2022/11/13 03:19:51;;;;;;;0.60;0.60;;;6.50;99.90;;;;;;4949039;28;20131;-87
2022/11/13 03:22:17;;;;;;;0.70;0.70;;;6.40;99.90;;;;;;4959657;28;20044;-85
2022/11/13 03:24:46;;;;;;;0.70;0.70;;;6.40;99.90;;;;;;4959966;28;20051;-85
2022/11/13 03:27:12;;;;;;;0.70;0.70;;;6.50;99.90;;;;;;4977804;28;20048;-85
2022/11/13 03:29:37;;;;;;;0.60;0.60;;;6.30;99.90;;;;;;4946666;28;20083;-85
2022/11/13 03:32:05;;;;;;;0.70;0.70;;;6.40;99.90;;;;;;4955439;28;20045;-85
2022/11/13 03:34:31;;;;;;;0.70;0.70;;;6.40;99.90;;;;;;4936517;28;20053;-85
2022/11/13 03:36:56;;;;;;;0.60;0.60;;;6.40;99.90;;;;;;4959582;28;20864;-85
2022/11/13 03:39:22;;;;;;;0.65;0.65;;;6.30;99.90;;;;;;4954051;28;20714;-86
2022/11/13 03:41:48;;;;;;;0.60;0.60;;;6.20;99.90;;;;;;4957111;28;20509;-85
2022/11/13 03:44:14;;;;;;;0.70;0.70;;;6.40;99.90;;;;;;4937267;28;20060;-85
2022/11/13 03:46:40;;;;;;;0.65;0.65;;;6.50;99.90;;;;;;4955029;28;20040;-86
2022/11/13 03:49:05;;;;;;;0.70;0.70;;;6.50;99.90;;;;;;4975901;28;20106;-86
2022/11/13 03:51:31;;;;;;;0.70;0.70;;;6.70;99.90;;;;;;4934740;28;20041;-86
2022/11/13 03:53:57;;;;;;;0.60;0.60;;;6.60;99.90;;;;;;4957127;28;20067;-87
2022/11/13 03:56:23;;;;;;;0.68;0.68;;;6.60;99.90;;;;;;4959785;28;20110;-86
2022/11/13 03:58:49;;;;;;;0.60;0.60;;;6.70;99.90;;;;;;4949635;28;20529;-86
2022/11/13 04:01:15;;;;;;;0.63;0.63;;;6.70;99.90;;;;;;4956575;28;20247;-86
2022/11/13 04:03:40;;;;;;;0.70;0.70;;;6.70;99.90;;;;;;4941523;28;20406;-86
2022/11/13 04:06:06;;;;;;;0.68;0.68;;;6.60;99.90;;;;;;4962971;28;20485;-87
2022/11/13 04:08:32;;;;;;;0.60;0.60;;;6.70;99.90;;;;;;4940263;28;20546;-86
2022/11/13 04:11:05;;;;;;;0.70;0.70;;;6.90;99.90;;;;;;4936494;28;20052;-86
2022/11/13 04:13:31;;;;;;;0.70;0.70;;;6.80;99.90;;;;;;4962350;28;20499;-85
2022/11/13 04:15:57;;;;;;;0.70;0.70;;;6.70;99.90;;;;;;4957801;28;21042;-85
2022/11/13 04:18:23;;;;;;;0.65;0.65;;;6.60;99.90;;;;;;4938716;28;20844;-86
2022/11/13 04:20:49;;;;;;;0.70;0.70;;;6.70;99.90;;;;;;4939836;28;20047;-86
2022/11/13 04:23:16;;;;;;;0.68;0.68;;;6.60;99.90;;;;;;4973415;28;20052;-85
2022/11/13 04:25:43;;;;;;;0.63;0.63;;;6.50;99.90;;;;;;4964802;28;20344;-85
2022/11/13 04:28:10;;;;;;;0.68;0.68;;;6.70;99.90;;;;;;4971121;28;20572;-86
2022/11/13 04:30:36;;;;;;;0.70;0.70;;;6.50;99.90;;;;;;4946124;28;20053;-86
2022/11/13 04:33:01;;;;;;;0.70;0.70;;;6.40;99.90;;;;;;4962353;28;20116;-85
2022/11/13 04:35:27;;;;;;;0.70;0.70;;;6.40;99.90;;;;;;4969984;28;20057;-86
2022/11/13 04:37:53;;;;;;;0.70;0.70;;;6.40;99.90;;;;;;4958736;28;20049;-86
2022/11/13 04:40:19;;;;;;;0.70;0.70;;;6.30;99.90;;;;;;4962748;28;20044;-86
2022/11/13 04:42:48;;;;;;;0.70;0.70;;;6.30;99.90;;;;;;4962109;28;20777;-85
2022/11/13 04:45:20;;;;;;;0.63;0.63;;;6.40;99.90;;;;;;4972362;28;20053;-86
2022/11/13 04:47:46;;;;;;;0.70;0.70;;;6.30;99.90;;;;;;4946766;28;20056;-86
2022/11/13 04:50:14;;;;;;;0.70;0.70;;;6.30;99.90;;;;;;4963597;28;20752;-86
2022/11/13 04:52:40;;;;;;;0.70;0.70;;;6.40;99.90;;;;;;4945052;28;20040;-87
2022/11/13 04:55:07;;;;;;;0.60;0.60;;;6.50;99.90;;;;;;4976124;28;20059;-86
2022/11/13 04:57:33;;;;;;;0.60;0.60;;;6.30;99.90;;;;;;4964197;28;20055;-86
2022/11/13 04:59:59;;;;;;;0.70;0.70;;;6.30;99.90;;;;;;4966002;28;20044;-86
2022/11/13 05:02:25;;;;;;;0.70;0.70;;;6.30;99.90;;;;;;4968611;28;20040;-86
2022/11/13 05:04:51;;;;;;;0.60;0.60;;;6.10;99.90;;;;;;4960299;28;20040;-86
2022/11/13 05:07:17;;;;;;;0.60;0.60;;;6.20;99.90;;;;;;4960462;28;20783;-86
2022/11/13 05:09:42;;;;;;;0.60;0.60;;;6.20;99.90;;;;;;4941542;28;21008;-86
2022/11/13 05:12:09;;;;;;;0.60;0.60;;;6.20;99.90;;;;;;4966873;28;20690;-86
2022/11/13 05:14:39;;;;;;;0.65;0.65;;;6.10;99.90;;;;;;4960590;28;20606;-87
2022/11/13 05:17:05;;;;;;;0.70;0.70;;;6.10;99.90;;;;;;4972773;28;20476;-86
2022/11/13 05:19:32;;;;;;;0.70;0.70;;;5.90;99.90;;;;;;4967167;28;20143;-86
2022/11/13 05:21:58;;;;;;;0.70;0.70;;;6.10;99.90;;;;;;4947466;28;20050;-86
2022/11/13 05:24:24;;;;;;;0.70;0.70;;;6.20;99.90;;;;;;4958719;28;20071;-86
2022/11/13 05:26:50;;;;;;;0.70;0.70;;;6.00;99.90;;;;;;4958259;28;20872;-85
2022/11/13 05:29:16;;;;;;;0.70;0.70;;;5.90;99.90;;;;;;4963165;28;20570;-88
2022/11/13 05:31:43;;;;;;;0.70;0.70;;;5.80;99.90;;;;;;4968906;28;20278;-86
2022/11/13 05:34:09;;;;;;;0.70;0.70;;;5.90;99.90;;;;;;4969963;28;20053;-85
2022/11/13 05:36:35;;;;;;;0.70;0.70;;;6.00;99.90;;;;;;4957956;28;20045;-86
2022/11/13 05:39:02;;;;;;;0.70;0.70;;;6.00;99.90;;;;;;4963479;28;20896;-86
2022/11/13 05:41:28;;;;;;;0.70;0.70;;;5.80;99.90;;;;;;4943589;28;20764;-86
2022/11/13 05:43:54;;;;;;;0.70;0.70;;;5.70;99.90;;;;;;4943204;28;20044;-85
2022/11/13 05:46:22;;;;;;;0.70;0.70;;;5.90;99.90;;;;;;4960841;28;21006;-86
2022/11/13 05:48:52;;;;;;;0.70;0.70;;;5.70;99.90;;;;;;4955187;28;20080;-86
2022/11/13 05:51:21;;;;;;;0.70;0.70;;;5.70;99.90;;;;;;4958720;28;20048;-86
2022/11/13 05:53:47;;;;;;;0.68;0.68;;;5.40;99.90;;;;;;4954298;28;20110;-86
2022/11/13 05:56:20;;;;;;;0.65;0.65;;;5.50;99.90;;;;;;4956043;28;20617;-86
2022/11/13 05:58:47;;;;;;;0.70;0.70;;;5.30;99.90;;;;;;4957263;28;20055;-85
2022/11/13 06:01:22;;;;;;;0.60;0.60;;;5.40;99.90;;;;;;4955244;28;20145;-86
2022/11/13 06:03:49;;;;;;;0.63;0.63;;;5.50;99.90;;;;;;4959897;28;20045;-86
2022/11/13 06:06:17;;;;;;;0.70;0.70;;;5.50;99.90;;;;;;4957927;28;20932;-86
2022/11/13 06:08:44;;;;;;;0.70;0.70;;;5.50;99.90;;;;;;4957168;28;20124;-86
2022/11/13 06:11:14;;;;;;;0.70;0.70;;;5.70;99.90;;;;;;4963497;28;20098;-86
2022/11/13 06:13:40;;;;;;;0.60;0.60;;;5.50;99.90;;;;;;4961142;28;20048;-86
2022/11/13 06:16:13;;;;;;;0.63;0.63;;;5.30;99.90;;;;;;4958383;28;20380;-85
2022/11/13 06:18:41;;;;;;;0.70;0.70;;;5.60;99.90;;;;;;4951436;28;20216;-86
2022/11/13 06:21:15;;;;;;;0.70;0.70;;;5.30;99.90;;;;;;4963091;28;20044;-86
2022/11/13 06:23:41;;;;;;;0.68;0.68;;;5.50;99.90;;;;;;4960868;28;20625;-86
2022/11/13 06:26:13;;;;;;;14.68;6.50;;;5.30;99.90;;;;;;4963833;28;20611;-87
2022/11/13 06:28:39;;;;;;;0.70;0.70;;;5.30;99.90;;;;;;4966878;28;20821;-87
2022/11/13 06:31:14;;;;;;;0.70;0.70;;;5.20;99.90;;;;;;4966913;28;20498;-86
2022/11/13 06:33:41;;;;;;;0.60;0.60;;;5.50;99.90;;;;;;4964433;28;20050;-87
2022/11/13 06:36:10;;;;;;;0.68;0.68;;;5.30;99.90;;;;;;4945754;28;20388;-86
2022/11/13 06:38:38;;;;;;;0.70;0.70;;;5.30;99.90;;;;;;4952827;28;20509;-85
2022/11/13 06:41:04;;;;;;;0.68;0.68;;;5.30;99.90;;;;;;4961707;28;20881;-88
2022/11/13 06:43:30;;;;;;;0.70;0.70;;;5.60;99.90;;;;;;4966118;28;20564;-85
2022/11/13 06:45:57;;;;;;;0.63;0.63;;;5.30;99.90;;;;;;4959378;28;20045;-87
2022/11/13 06:48:23;;;;;;;0.63;0.63;;;5.50;99.90;;;;;;4951931;28;21053;-86
2022/11/13 06:50:50;;;;;;;0.65;0.65;;;5.40;99.90;;;;;;4963488;28;20171;-86
2022/11/13 06:53:16;;;;;;;0.63;0.63;;;5.40;99.90;;;;;;4965403;28;20044;-86
2022/11/13 06:55:47;;;;;;;0.70;0.70;;;5.40;99.90;;;;;;4969104;28;20067;-85
2022/11/13 06:58:13;;;;;;;0.65;0.65;;;5.50;99.90;;;;;;4965826;28;20045;-87
2022/11/13 07:00:40;;;;;;;0.65;0.65;;;5.50;99.90;;;;;;4964769;28;20052;-86
2022/11/13 07:03:16;;;;;;;0.70;0.70;;;5.40;99.90;;;;;;4958328;28;20076;-86
2022/11/13 07:05:42;;;;;;;0.70;0.70;;;5.30;99.90;;;;;;4944436;28;20500;-83
2022/11/13 07:08:07;;;;;;;0.65;0.65;;;5.30;99.90;;;;;;4969537;28;20067;-86
2022/11/13 07:10:33;;;;;;;0.70;0.70;;;5.60;99.90;;;;;;4963895;28;20049;-87
2022/11/13 07:12:59;;;;;;;0.70;0.70;;;5.50;99.90;;;;;;4934085;28;20971;-86
2022/11/13 07:15:25;;;;;;;0.70;0.70;;;5.60;99.90;;;;;;4961725;28;20047;-86
2022/11/13 07:17:51;;;;;;;0.70;0.70;;;5.70;99.90;;;;;;4948028;28;20048;-87
2022/11/13 07:20:17;;;;;;;0.70;0.70;;;5.60;99.90;;;;;;4969094;28;20512;-86
2022/11/13 07:22:43;;;;;;;0.70;0.70;;;5.70;99.90;;;;;;4984934;28;20049;-90
2022/11/13 07:25:09;;;;;;;0.70;0.70;;;5.70;99.90;;;;;;4931627;28;20109;-86
2022/11/13 07:27:34;;;;;;;0.70;0.70;;;5.80;99.90;;;;;;4945660;28;20759;-85
2022/11/13 07:30:01;;;;;;;0.70;0.70;;;6.00;99.90;;;;;;4964884;28;20053;-86
2022/11/13 07:32:26;;;;;;;0.63;0.63;;;5.80;99.90;;;;;;4944393;28;20177;-86
2022/11/13 07:34:55;;;;;;;0.70;0.70;;;6.00;99.90;;;;;;4972776;28;20044;-88
2022/11/13 07:37:21;;;;;;;0.70;0.70;;;6.10;99.90;;;;;;4938233;28;20772;-87
2022/11/13 07:39:46;;;;;;;0.70;0.70;;;6.00;99.90;;;;;;4960999;28;20289;-86
2022/11/13 07:42:12;;;;;;;0.70;0.70;;;6.00;99.90;;;;;;4958414;28;20920;-81
2022/11/13 07:44:38;;;;;;;0.60;0.60;;;6.30;99.90;;;;;;4970033;28;20080;-86
2022/11/13 07:47:04;;;;;;;0.60;0.60;;;6.40;99.90;;;;;;4948837;28;20629;-85
2022/11/13 07:49:29;;;;;;;0.70;0.70;;;6.50;99.90;;;;;;4953310;28;20649;-84
2022/11/13 07:51:55;;;;;;;0.63;0.63;;;6.70;99.90;;;;;;4930527;28;20102;-85
2022/11/13 07:54:21;;;;;;;0.70;0.70;;;6.80;99.90;;;;;;4948549;28;20044;-85
2022/11/13 07:56:47;;;;;;;0.60;0.60;;;7.00;99.90;;;;;;4969091;28;20048;-85
2022/11/13 07:59:13;;;;;;;0.60;0.60;;;7.20;99.90;;;;;;4936954;28;20058;-83
2022/11/13 08:01:38;;;;;;;0.60;0.60;;;7.20;99.90;;;;;;4964641;28;20448;-85
2022/11/13 08:04:04;;;;;;;0.70;0.70;;;7.50;99.90;;;;;;4969451;28;20056;-87
2022/11/13 08:06:30;;;;;;;0.68;0.68;;;7.50;99.90;;;;;;4962620;28;20506;-83
2022/11/13 08:08:58;;;;;;;0.60;0.60;;;7.50;99.90;;;;;;4968198;28;20048;-84
2022/11/13 08:11:24;;;;;;;0.70;0.70;;;7.70;99.90;;;;;;4969674;28;20433;-86
2022/11/13 08:13:51;;;;;;;0.60;0.60;;;7.90;99.90;;;;;;4959759;28;20847;-85
2022/11/13 08:16:17;;;;;;;0.60;0.60;;;8.00;99.90;;;;;;4970504;28;20905;-88
2022/11/13 08:18:42;;;;;;;0.60;0.60;;;8.30;99.90;;;;;;4952389;28;20052;-84
2022/11/13 08:21:08;;;;;;;0.65;0.65;;;8.30;99.90;;;;;;4976624;28;20052;-84
2022/11/13 08:23:36;;;;;;;0.60;0.60;;;8.40;99.90;;;;;;4957736;28;20106;-84
2022/11/13 08:26:04;;;;;;;0.60;0.60;;;8.50;99.90;;;;;;4966226;28;20523;-86
2022/11/13 08:28:30;;;;;;;0.60;0.60;;;8.50;99.90;;;;;;4983130;28;20843;-83
2022/11/13 08:30:55;;;;;;;0.60;0.60;;;8.80;99.90;;;;;;4980634;28;20044;-87
2022/11/13 08:33:21;;;;;;;0.60;0.60;;;8.90;99.90;;;;;;4963899;28;20049;-87
2022/11/13 08:35:58;;;;;;;0.60;0.60;;;9.00;99.90;;;;;;4938511;28;20425;-86
2022/11/13 08:38:25;;;;;;;0.60;0.60;;;9.10;99.90;;;;;;4965099;28;20589;-85
2022/11/13 08:40:51;;;;;;;0.60;0.60;;;9.00;99.90;;;;;;4963045;28;20051;-87
2022/11/13 08:43:17;;;;;;;0.60;0.60;;;9.10;99.90;;;;;;4959303;28;20544;-86
2022/11/13 08:45:46;;;;;;;0.60;0.60;;;9.30;99.90;;;;;;4959651;28;20061;-85
2022/11/13 08:48:13;;;;;;;0.60;0.60;;;9.40;99.90;;;;;;4960717;28;20049;-86
2022/11/13 08:50:39;;;;;;;0.60;0.60;;;9.40;99.90;;;;;;4961483;28;20138;-85
2022/11/13 08:53:05;;;;;;;0.60;0.60;;;9.70;99.90;;;;;;4963945;28;20055;-85
2022/11/13 08:55:34;;;;;;;0.50;0.50;;;9.70;99.90;;;;;;4946422;28;20053;-88
2022/11/13 08:58:01;;;;;;;0.60;0.60;;;9.90;99.90;;;;;;4943364;28;20060;-86
2022/11/13 09:00:29;;;;;;;0.50;0.50;;;9.90;99.90;;;;;;4964166;28;20052;-89
2022/11/13 09:02:56;;;;;;;0.60;0.60;;;10.00;99.90;;;;;;4965159;28;20146;-85
2022/11/13 09:05:25;;;;;;;0.60;0.60;;;10.30;99.90;;;;;;4945952;28;20659;-86
2022/11/13 09:07:54;;;;;;;0.60;0.60;;;10.30;99.90;;;;;;4961684;28;20512;-85
2022/11/13 09:10:20;;;;;;;0.60;0.60;;;10.30;99.90;;;;;;4960351;28;20568;-83
2022/11/13 09:12:46;;;;;;;0.60;0.60;;;10.30;99.90;;;;;;4946618;28;20866;-85
2022/11/13 09:15:12;;;;;;;0.60;0.60;;;10.40;99.90;;;;;;4961774;28;20412;-86
2022/11/13 09:17:37;;;;;;;0.60;0.60;;;10.30;99.90;;;;;;4971526;28;21050;-85
2022/11/13 09:20:07;;;;;;;0.60;0.60;;;10.40;99.90;;;;;;4951522;28;20908;-89
2022/11/13 09:22:34;;;;;;;0.60;0.60;;;10.70;99.90;;;;;;4967262;28;20483;-89
2022/11/13 09:25:01;;;;;;;0.60;0.60;;;10.50;99.90;;;;;;4956327;28;20055;-88
2022/11/13 09:27:27;;;;;;;0.60;0.60;;;10.30;99.90;;;;;;4952659;28;20052;-88
2022/11/13 09:29:53;;;;;;;0.55;0.55;;;10.20;99.90;;;;;;4959826;28;20394;-87
2022/11/13 09:32:21;;;;;;;0.55;0.55;;;10.20;99.90;;;;;;4965731;28;20036;-87
2022/11/13 09:34:47;;;;;;;0.60;0.60;;;10.30;99.90;;;;;;4964754;28;20541;-85
2022/11/13 09:37:16;;;;;;;0.55;0.55;;;10.20;99.90;;;;;;4961470;28;20052;-88
2022/11/13 09:39:45;;;;;;;0.60;0.60;;;10.30;99.90;;;;;;4970659;28;20059;-87
2022/11/13 09:42:22;;;;;;;0.60;0.60;;;10.50;99.90;;;;;;4964151;28;20556;-88
2022/11/13 09:44:55;;;;;;;0.60;0.60;;;10.70;99.90;;;;;;4963032;28;20712;-87
2022/11/13 09:47:27;;;;;;;0.60;0.60;;;10.70;99.90;;;;;;4961834;28;20480;-87
2022/11/13 09:50:27;;;;;;;0.55;0.55;;;10.70;99.90;;;;;;4960861;28;20075;-85
2022/11/13 09:52:54;;;;;;;0.60;0.60;;;10.90;99.90;;;;;;4911674;28;20379;-86
2022/11/13 09:55:28;;;;;;;0.60;0.60;;;10.90;99.90;;;;;;4955248;28;20065;-87
2022/11/13 09:58:22;;;;;;;0.60;0.60;;;11.10;99.90;;;;;;4977010;28;20105;-85
2022/11/13 10:00:48;;;;;;;0.50;0.50;;;11.30;99.90;;;;;;4970017;28;20386;-88
2022/11/13 10:03:23;;;;;;;0.60;0.60;;;11.30;99.90;;;;;;4952558;28;20110;-83
2022/11/13 10:05:56;;;;;;;0.60;0.60;;;11.70;99.90;;;;;;4974229;28;20769;-88
2022/11/13 10:08:56;;;;;;;0.52;0.52;;;11.70;99.90;;;;;;4960485;28;20125;-85
2022/11/13 10:11:33;;;;;;;0.50;0.50;;;11.80;99.90;;;;;;4968278;28;20049;-85
2022/11/13 10:14:06;;;;;;;0.60;0.60;;;12.00;99.90;;;;;;4984205;28;20683;-85
2022/11/13 10:16:39;;;;;;;0.50;0.50;;;11.90;99.90;;;;;;4975478;28;20125;-84
2022/11/13 10:19:19;;;;;;;0.50;0.50;;;11.90;99.90;;;;;;4978731;28;20048;-90
2022/11/13 10:21:48;;;;;;;0.50;0.50;;;11.90;99.90;;;;;;4977963;28;20048;-85
2022/11/13 10:24:40;;;;;;;0.50;0.50;;;11.90;99.90;;;;;;4988933;28;20156;-86
2022/11/13 10:27:10;;;;;;;0.50;0.50;;;11.90;99.90;;;;;;4946818;28;20067;-85
2022/11/13 10:29:37;;;;;;;0.57;0.57;;;12.10;99.90;;;;;;4957380;28;20044;-86
2022/11/13 10:32:22;;;;;;;0.57;0.57;;;12.20;99.90;;;;;;4992560;28;20033;-84
2022/11/13 10:35:11;;;;;;;0.60;0.60;;;12.30;99.90;;;;;;4992642;28;20871;-85
2022/11/13 10:37:49;;;;;;;0.50;0.50;;;12.30;99.90;;;;;;4961492;28;20177;-85
2022/11/13 10:40:36;;;;;;;0.50;0.50;;;12.30;99.90;;;;;;4972122;28;20486;-85
2022/11/13 10:43:16;;;;;;;0.50;0.50;;;12.50;99.90;;;;;;4966457;28;20518;-82
2022/11/13 10:45:58;;;;;;;0.60;0.60;;;12.60;99.90;;;;;;4956014;28;20533;-86
2022/11/13 10:48:43;;;;;;;0.50;0.50;;;12.70;99.90;;;;;;4975237;28;20346;-88
2022/11/13 10:51:27;;;;;;;0.50;0.50;;;12.80;99.90;;;;;;4973050;28;20063;-87
2022/11/13 10:53:54;;;;;;;0.52;0.52;;;12.90;99.90;;;;;;4980650;28;20049;-92
2022/11/13 10:56:30;;;;;;;0.50;0.50;;;13.00;99.90;;;;;;4970530;28;20780;-89
2022/11/13 10:59:00;;;;;;;0.50;0.50;;;13.10;99.90;;;;;;4967340;28;20435;-85
2022/11/13 11:01:26;;;;;;;0.50;0.50;;;13.20;99.90;;;;;;4972382;28;20075;-87
2022/11/13 11:03:52;;;;;;;0.50;0.50;;;13.20;99.90;;;;;;4959036;28;20063;-87
2022/11/13 11:06:18;;;;;;;0.50;0.50;;;13.10;99.90;;;;;;4949610;28;20071;-84
2022/11/13 11:08:44;;;;;;;0.50;0.50;;;13.30;99.90;;;;;;4968158;28;20126;-88
2022/11/13 11:14:24;;;;;;;0.40;0.40;;;13.40;99.90;;;;;;4976029;28;20052;-91
2022/11/13 11:16:52;;;;;;;0.50;0.50;;;13.60;99.90;;;;;;4974643;28;20129;-86
2022/11/13 11:19:23;;;;;;;0.50;0.50;;;13.50;99.90;;;;;;4991968;28;20777;-88
2022/11/13 11:21:57;;;;;;;0.50;0.50;;;13.40;99.90;;;;;;4954981;28;20386;-86
2022/11/13 11:24:37;;;;;;;0.50;0.50;;;13.60;99.90;;;;;;4971903;28;20052;-86
2022/11/13 11:27:21;;;;;;;0.52;0.52;;;13.70;99.90;;;;;;4963919;28;20486;-83
2022/11/13 11:30:03;;;;;;;0.50;0.50;;;13.80;99.90;;;;;;4949257;28;20431;-91
2022/11/13 11:32:40;;;;;;;0.50;0.50;;;13.90;99.90;;;;;;4962373;28;20083;-88
2022/11/13 11:35:18;;;;;;;0.50;0.50;;;14.20;99.90;;;;;;4964282;28;20052;-87
2022/11/13 11:38:08;;;;;;;0.50;0.50;;;14.20;99.90;;;;;;4955492;28;20384;-87
2022/11/13 11:40:39;;;;;;;0.50;0.50;;;14.30;99.90;;;;;;4961684;28;20123;-87
2022/11/13 11:43:17;;;;;;;0.50;0.50;;;14.20;99.90;;;;;;4955672;28;20061;-86
2022/11/13 11:45:45;;;;;;;0.50;0.50;;;14.30;99.90;;;;;;4955582;28;20064;-86
2022/11/13 11:48:30;;;;;;;0.50;0.50;;;14.30;99.90;;;;;;4958617;28;20409;-87
2022/11/13 11:51:45;;;;;;;0.45;0.45;;;14.60;99.90;;;;;;4964167;28;20087;-87
2022/11/13 11:54:39;;;;;;;0.50;0.50;;;14.90;99.90;;;;;;4877582;28;20045;-84
2022/11/13 11:58:04;;;;;;;0.50;0.50;;;14.90;99.90;;;;;;4890329;28;20616;-88
2022/11/13 12:00:31;;;;;;;0.50;0.50;;;14.70;99.90;;;;;;4921983;28;20057;-87
2022/11/13 12:03:03;;;;;;;0.50;0.50;;;14.80;99.90;;;;;;4940283;28;20251;-86
2022/11/13 12:05:48;;;;;;;0.50;0.50;;;14.80;99.90;;;;;;4956160;28;20073;-86
2022/11/13 12:08:36;;;;;;;0.50;0.50;;;14.90;99.90;;;;;;4961365;28;20076;-89
2022/11/13 12:11:06;;;;;;;0.50;0.50;;;14.90;99.90;;;;;;4948329;28;20049;-85
2022/11/13 12:17:07;;;;;;;0.50;0.50;;;15.30;99.90;;;;;;4987529;28;21137;-86
2022/11/13 12:19:53;;;;;;;0.60;0.60;;;15.30;99.90;;;;;;4970925;28;20492;-86
2022/11/13 12:22:46;;;;;;;0.50;0.50;;;15.20;99.90;;;;;;4965489;28;20274;-85
2022/11/13 12:25:18;;;;;;;0.40;0.40;;;15.40;99.90;;;;;;4972857;28;20048;-86
2022/11/13 12:27:46;;;;;;;0.40;0.40;;;15.50;99.90;;;;;;4968210;28;20412;-87
2022/11/13 12:30:20;;;;;;;0.50;0.50;;;15.60;99.90;;;;;;4953294;28;20051;-85
2022/11/13 12:33:04;;;;;;;0.43;0.43;;;15.70;99.90;;;;;;4943249;28;20102;-87
2022/11/13 12:35:30;;;;;;;0.40;0.40;;;15.80;99.90;;;;;;4956664;28;20245;-87
2022/11/13 12:38:01;;;;;;;0.40;0.40;;;15.90;99.90;;;;;;4966893;28;20049;-88
2022/11/13 12:40:37;;;;;;;0.50;0.50;;;15.60;99.90;;;;;;4965870;28;20056;-88
2022/11/13 12:43:31;;;;;;;0.40;0.40;;;15.80;99.90;;;;;;4961015;28;20568;-85
2022/11/13 12:46:07;;;;;;;0.50;0.50;;;15.70;99.90;;;;;;4980878;28;20051;-86
2022/11/13 12:48:39;;;;;;;0.50;0.50;;;16.10;99.90;;;;;;4961360;28;20418;-87
2022/11/13 12:51:15;;;;;;;0.50;0.50;;;15.90;99.90;;;;;;4963446;28;20304;-90
2022/11/13 12:53:52;;;;;;;0.50;0.50;;;15.90;99.90;;;;;;4958910;28;20415;-89
2022/11/13 12:56:27;;;;;;;0.40;0.40;;;15.90;99.90;;;;;;4957581;28;20156;-86
2022/11/13 12:59:17;;;;;;;0.50;0.50;;;16.00;99.90;;;;;;4971416;28;20048;-86
2022/11/13 13:02:06;;;;;;;0.50;0.50;;;16.00;99.90;;;;;;4968405;28;20927;-85
2022/11/13 13:05:09;;;;;;;0.50;0.50;;;16.00;99.90;;;;;;4918089;28;20057;-86
2022/11/13 13:07:44;;;;;;;0.50;0.50;;;16.00;99.90;;;;;;4958529;28;20067;-87
2022/11/13 13:10:10;;;;;;;0.50;0.50;;;16.10;99.90;;;;;;4947961;28;20045;-86
2022/11/13 13:12:35;;;;;;;0.50;0.50;;;16.00;99.90;;;;;;4983908;28;20051;-87
2022/11/13 13:15:29;;;;;;;0.40;0.40;;;16.10;99.90;;;;;;4967062;28;20596;-84
2022/11/13 13:18:24;;;;;;;0.40;0.40;;;15.90;99.90;;;;;;4963203;28;20234;-86